Time;durP1;ratioP1;P1;durP2;ratioP2;P2;SDS_P1;SDS_P2;PMS_P1;PMS_P2;Temp;Humidity;BMP_temperature;BMP_pressure;BME280_temperature;BME280_humidity;BME280_pressure;Samples;Min_cycle;Max_cycle;Signal;HPM_P1;HPM_P2
2022/08/13 00:02:01;;;;;;;8.82;5.57;;;;;;;;;;5070471;28;20032;-46
2022/08/13 00:04:28;;;;;;;6.90;5.30;;;;;;;;;;5067536;28;20043;-48
2022/08/13 00:07:08;;;;;;;9.82;5.72;;;;;;;;;;5071844;28;20036;-46
2022/08/13 00:09:42;;;;;;;7.22;5.30;;;;;;;;;;5067674;28;20123;-49
2022/08/13 00:13:00;;;;;;;8.30;5.57;;;;;;;;;;5070361;28;20071;-48
2022/08/13 00:15:07;;;;;;;12.07;5.20;;;;;;;;;;5061863;28;20069;-49
2022/08/13 00:17:33;;;;;;;8.18;5.43;;;;;;;;;;5069752;28;20104;-46
2022/08/13 00:19:59;;;;;;;6.45;5.10;;;;;;;;;;5066614;28;20147;-47
2022/08/13 00:22:26;;;;;;;9.25;5.40;;;;;;;;;;5069539;28;20060;-50
2022/08/13 00:24:52;;;;;;;6.75;5.40;;;;;;;;;;5068102;28;20031;-46
2022/08/13 00:27:22;;;;;;;5.00;4.57;;;;;;;;;;5067072;28;20020;-46
2022/08/13 00:29:49;;;;;;;9.75;5.43;;;;;;;;;;5068278;28;20037;-45
2022/08/13 00:32:23;;;;;;;7.88;5.00;;;;;;;;;;5067325;28;20060;-48
2022/08/13 00:34:50;;;;;;;6.60;6.00;;;;;;;;;;5069042;28;20056;-45
2022/08/13 00:37:16;;;;;;;8.02;5.20;;;;;;;;;;5068937;28;20039;-50
2022/08/13 00:39:41;;;;;;;8.02;5.30;;;;;;;;;;5066941;28;20452;-49
2022/08/13 00:42:07;;;;;;;8.32;5.68;;;;;;;;;;5068423;28;20049;-48
2022/08/13 00:44:33;;;;;;;6.35;5.15;;;;;;;;;;5065971;28;20393;-46
2022/08/13 00:49:46;;;;;;;7.80;5.15;;;;;;;;;;5070671;28;20032;-47
2022/08/13 00:52:11;;;;;;;8.13;4.85;;;;;;;;;;5069809;28;20066;-47
2022/08/13 00:54:40;;;;;;;7.15;4.90;;;;;;;;;;5066878;28;20264;-46
2022/08/13 00:57:07;;;;;;;7.07;4.85;;;;;;;;;;5070256;28;20040;-45
2022/08/13 00:59:34;;;;;;;5.85;5.25;;;;;;;;;;5065896;28;20040;-45
2022/08/13 01:02:01;;;;;;;8.45;4.75;;;;;;;;;;5069917;28;20107;-48
2022/08/13 01:04:28;;;;;;;5.50;4.93;;;;;;;;;;5068590;28;20035;-45
2022/08/13 01:06:58;;;;;;;6.90;5.00;;;;;;;;;;5065582;28;20120;-48
2022/08/13 01:09:29;;;;;;;6.68;4.90;;;;;;;;;;5066263;28;20115;-46
2022/08/13 01:11:58;;;;;;;6.65;5.00;;;;;;;;;;5067740;28;20036;-46
2022/08/13 01:14:27;;;;;;;5.57;4.97;;;;;;;;;;5064778;28;20045;-48
2022/08/13 01:16:53;;;;;;;5.93;5.05;;;;;;;;;;5070670;28;20053;-46
2022/08/13 01:19:20;;;;;;;8.35;5.05;;;;;;;;;;5065605;28;20477;-45
2022/08/13 01:21:50;;;;;;;6.25;4.90;;;;;;;;;;5067566;28;20056;-46
2022/08/13 01:24:16;;;;;;;13.05;5.45;;;;;;;;;;5066456;28;20033;-50
2022/08/13 01:26:42;;;;;;;7.88;4.90;;;;;;;;;;5069060;28;20401;-46
2022/08/13 01:29:09;;;;;;;6.22;4.90;;;;;;;;;;5068864;28;20079;-46
2022/08/13 01:31:35;;;;;;;8.88;4.53;;;;;;;;;;5067318;28;20373;-46
2022/08/13 01:34:03;;;;;;;7.78;5.13;;;;;;;;;;5068238;28;20037;-46
2022/08/13 01:36:30;;;;;;;6.32;4.55;;;;;;;;;;5068367;28;20055;-48
2022/08/13 01:38:57;;;;;;;7.53;4.90;;;;;;;;;;5069563;28;20095;-48
2022/08/13 01:41:25;;;;;;;6.30;4.60;;;;;;;;;;5065522;28;20039;-46
2022/08/13 01:43:52;;;;;;;6.47;4.30;;;;;;;;;;5067635;28;20067;-46
2022/08/13 01:46:18;;;;;;;7.57;5.00;;;;;;;;;;5065478;28;20659;-46
2022/08/13 01:51:34;;;;;;;5.45;4.95;;;;;;;;;;5065116;28;20103;-49
2022/08/13 01:54:01;;;;;;;5.50;4.93;;;;;;;;;;5068062;28;20078;-46
2022/08/13 01:56:29;;;;;;;10.15;5.38;;;;;;;;;;5065637;28;20055;-48
2022/08/13 01:58:58;;;;;;;7.78;4.53;;;;;;;;;;5066716;28;20076;-49
2022/08/13 02:01:26;;;;;;;8.07;4.75;;;;;;;;;;5067574;28;20024;-49
2022/08/13 02:03:56;;;;;;;5.68;4.60;;;;;;;;;;5066042;28;20039;-47
2022/08/13 02:06:40;;;;;;;7.28;4.90;;;;;;;;;;5069010;28;20048;-47
2022/08/13 02:09:07;;;;;;;6.97;4.70;;;;;;;;;;5066260;28;20115;-46
2022/08/13 02:11:35;;;;;;;9.77;5.03;;;;;;;;;;5068245;28;20047;-46
2022/08/13 02:14:05;;;;;;;9.18;5.20;;;;;;;;;;5069414;28;20415;-45
2022/08/13 02:16:33;;;;;;;8.00;5.00;;;;;;;;;;5066775;28;20504;-47
2022/08/13 02:19:03;;;;;;;8.30;4.88;;;;;;;;;;5067330;28;20034;-49
2022/08/13 02:21:37;;;;;;;5.78;5.18;;;;;;;;;;5066918;28;20485;-49
2022/08/13 02:24:05;;;;;;;7.72;5.10;;;;;;;;;;5068314;28;20063;-45
2022/08/13 02:26:32;;;;;;;6.35;4.93;;;;;;;;;;5068751;28;20036;-48
2022/08/13 02:29:01;;;;;;;6.00;5.00;;;;;;;;;;5063973;28;20537;-46
2022/08/13 02:31:28;;;;;;;5.70;5.20;;;;;;;;;;5069451;28;20470;-48
2022/08/13 02:33:56;;;;;;;7.18;5.07;;;;;;;;;;5065502;28;20724;-45
2022/08/13 02:36:23;;;;;;;5.47;4.93;;;;;;;;;;5067856;28;20081;-46
2022/08/13 02:38:57;;;;;;;6.47;5.28;;;;;;;;;;5066574;28;20036;-46
2022/08/13 02:41:38;;;;;;;5.88;4.85;;;;;;;;;;5063851;28;20046;-49
2022/08/13 02:44:04;;;;;;;4.95;4.53;;;;;;;;;;5066486;28;22893;-45
2022/08/13 02:46:30;;;;;;;8.27;5.18;;;;;;;;;;5066517;28;20127;-48
2022/08/13 02:49:02;;;;;;;8.68;5.07;;;;;;;;;;5066828;28;20117;-45
2022/08/13 02:51:30;;;;;;;5.82;4.97;;;;;;;;;;5067113;28;20052;-49
2022/08/13 02:53:56;;;;;;;7.80;5.55;;;;;;;;;;5066191;28;20028;-48
2022/08/13 02:56:23;;;;;;;10.77;5.03;;;;;;;;;;5065625;28;20025;-48
2022/08/13 02:58:49;;;;;;;5.57;5.07;;;;;;;;;;5066897;28;20052;-46
2022/08/13 03:01:14;;;;;;;9.38;5.80;;;;;;;;;;5065275;28;20442;-48
2022/08/13 03:03:40;;;;;;;5.72;4.90;;;;;;;;;;5064133;28;20028;-45
2022/08/13 03:06:08;;;;;;;6.15;5.55;;;;;;;;;;5063277;28;20067;-46
2022/08/13 03:08:35;;;;;;;6.65;5.38;;;;;;;;;;5065413;28;20032;-48
2022/08/13 03:11:01;;;;;;;7.07;5.55;;;;;;;;;;5065784;28;20060;-47
2022/08/13 03:13:32;;;;;;;5.68;5.05;;;;;;;;;;5064404;28;20111;-46
2022/08/13 03:16:01;;;;;;;7.80;5.38;;;;;;;;;;5066228;28;20388;-46
2022/08/13 03:18:27;;;;;;;8.20;5.47;;;;;;;;;;5067533;28;20524;-46
2022/08/13 03:20:53;;;;;;;6.45;5.63;;;;;;;;;;5062777;28;20112;-46
2022/08/13 03:23:20;;;;;;;9.20;5.65;;;;;;;;;;5065628;28;20119;-47
2022/08/13 03:25:45;;;;;;;7.68;5.95;;;;;;;;;;5065033;28;20037;-45
2022/08/13 03:28:11;;;;;;;6.30;5.78;;;;;;;;;;5063925;28;20063;-47
2022/08/13 03:30:37;;;;;;;10.20;5.80;;;;;;;;;;5066998;28;20431;-46
2022/08/13 03:33:06;;;;;;;5.90;5.30;;;;;;;;;;5068967;28;20040;-46
2022/08/13 03:35:33;;;;;;;12.45;6.00;;;;;;;;;;5070167;28;20466;-46
2022/08/13 03:37:58;;;;;;;6.95;6.38;;;;;;;;;;5069515;28;20033;-47
2022/08/13 03:41:00;;;;;;;12.35;5.82;;;;;;;;;;5069200;28;20040;-46
2022/08/13 03:43:16;;;;;;;6.85;5.25;;;;;;;;;;5068829;28;20025;-45
2022/08/13 03:45:44;;;;;;;6.00;5.35;;;;;;;;;;5070166;28;20033;-46
2022/08/13 03:48:13;;;;;;;6.43;5.38;;;;;;;;;;5071135;28;20021;-45
2022/08/13 03:50:40;;;;;;;9.80;6.20;;;;;;;;;;5065325;28;20040;-46
2022/08/13 03:53:07;;;;;;;8.25;5.57;;;;;;;;;;5072051;28;20025;-45
2022/08/13 03:55:33;;;;;;;7.53;5.47;;;;;;;;;;5065008;28;20032;-47
2022/08/13 03:58:00;;;;;;;7.25;5.88;;;;;;;;;;5072211;28;20093;-45
2022/08/13 04:00:28;;;;;;;8.98;5.60;;;;;;;;;;5068790;28;20039;-48
2022/08/13 04:02:57;;;;;;;7.78;5.28;;;;;;;;;;5068700;28;20044;-45
2022/08/13 04:05:23;;;;;;;8.70;5.65;;;;;;;;;;5068010;28;20254;-47
2022/08/13 04:07:51;;;;;;;6.00;5.18;;;;;;;;;;5070442;28;20041;-45
2022/08/13 04:10:17;;;;;;;8.50;5.70;;;;;;;;;;5068017;28;20029;-45
2022/08/13 04:12:43;;;;;;;6.63;4.97;;;;;;;;;;5066084;28;20036;-47
2022/08/13 04:15:12;;;;;;;5.32;4.82;;;;;;;;;;5067446;28;20726;-47
2022/08/13 04:17:57;;;;;;;5.45;4.95;;;;;;;;;;5071433;28;20101;-47
2022/08/13 04:20:49;;;;;;;9.00;5.50;;;;;;;;;;5066661;28;20401;-46
2022/08/13 04:23:39;;;;;;;5.60;4.88;;;;;;;;;;5068434;28;20496;-49
2022/08/13 04:26:25;;;;;;;9.00;5.43;;;;;;;;;;5067359;28;20040;-45
2022/08/13 04:29:11;;;;;;;9.52;5.35;;;;;;;;;;5065121;28;20036;-46
2022/08/13 04:32:02;;;;;;;8.70;5.10;;;;;;;;;;5070252;28;20028;-45
2022/08/13 04:34:47;;;;;;;5.57;5.00;;;;;;;;;;5066120;28;20081;-46
2022/08/13 04:37:12;;;;;;;5.32;4.85;;;;;;;;;;5067195;28;20076;-47
2022/08/13 04:39:58;;;;;;;5.47;4.50;;;;;;;;;;5066402;28;20548;-47
2022/08/13 04:42:54;;;;;;;5.72;4.80;;;;;;;;;;5063681;28;20511;-46
2022/08/13 04:45:22;;;;;;;5.63;5.13;;;;;;;;;;5070616;28;20024;-46
2022/08/13 04:47:47;;;;;;;4.97;4.57;;;;;;;;;;5062817;28;20032;-48
2022/08/13 04:50:14;;;;;;;5.30;4.72;;;;;;;;;;5068814;28;20042;-45
2022/08/13 04:52:40;;;;;;;7.10;5.05;;;;;;;;;;5067012;28;20861;-45
2022/08/13 04:55:07;;;;;;;5.18;4.68;;;;;;;;;;5070529;28;20085;-48
2022/08/13 04:57:33;;;;;;;6.35;4.80;;;;;;;;;;5069376;28;20109;-49
2022/08/13 05:00:03;;;;;;;7.95;5.43;;;;;;;;;;5068978;28;20043;-45
2022/08/13 05:02:30;;;;;;;6.72;4.93;;;;;;;;;;5066292;28;20517;-46
2022/08/13 05:04:58;;;;;;;6.13;4.85;;;;;;;;;;5069170;28;20048;-49
2022/08/13 05:07:24;;;;;;;8.27;5.10;;;;;;;;;;5063788;28;20037;-45
2022/08/13 05:09:50;;;;;;;15.13;4.60;;;;;;;;;;5069266;28;20060;-49
2022/08/13 05:12:15;;;;;;;9.32;5.18;;;;;;;;;;5067200;28;20188;-45
2022/08/13 05:14:41;;;;;;;5.88;4.70;;;;;;;;;;5071925;28;20465;-46
2022/08/13 05:17:07;;;;;;;5.60;4.80;;;;;;;;;;5068679;28;20119;-50
2022/08/13 05:19:34;;;;;;;5.20;4.80;;;;;;;;;;5068633;28;20035;-49
2022/08/13 05:21:59;;;;;;;4.78;4.47;;;;;;;;;;5068084;28;20054;-49
2022/08/13 05:24:25;;;;;;;6.65;5.00;;;;;;;;;;5070867;28;20021;-45
2022/08/13 05:26:52;;;;;;;7.68;5.00;;;;;;;;;;5065677;28;20542;-48
2022/08/13 05:29:19;;;;;;;6.97;5.15;;;;;;;;;;5065962;28;20025;-46
2022/08/13 05:31:45;;;;;;;5.75;5.13;;;;;;;;;;5065465;28;20508;-46
2022/08/13 05:34:11;;;;;;;5.10;4.70;;;;;;;;;;5067422;28;20092;-48
2022/08/13 05:36:39;;;;;;;6.35;4.93;;;;;;;;;;5070047;28;20111;-45
2022/08/13 05:39:05;;;;;;;6.18;4.85;;;;;;;;;;5063117;28;20028;-48
2022/08/13 05:41:30;;;;;;;6.32;5.00;;;;;;;;;;5069697;28;20020;-47
2022/08/13 05:43:57;;;;;;;5.85;5.18;;;;;;;;;;5067503;28;20389;-46
2022/08/13 05:46:24;;;;;;;5.00;4.50;;;;;;;;;;5064824;28;20077;-45
2022/08/13 05:48:56;;;;;;;5.22;4.82;;;;;;;;;;5071081;28;20039;-47
2022/08/13 05:51:31;;;;;;;9.77;5.00;;;;;;;;;;5067764;28;20029;-45
2022/08/13 05:53:59;;;;;;;5.68;5.18;;;;;;;;;;5067461;28;20067;-45
2022/08/13 05:56:33;;;;;;;8.45;5.20;;;;;;;;;;5066840;28;20385;-46
2022/08/13 05:58:58;;;;;;;7.78;4.90;;;;;;;;;;5068374;28;20044;-47
2022/08/13 06:04:11;;;;;;;8.52;5.05;;;;;;;;;;5067910;28;20091;-45
2022/08/13 06:06:37;;;;;;;8.02;4.68;;;;;;;;;;5066797;28;20489;-45
2022/08/13 06:09:05;;;;;;;5.90;5.38;;;;;;;;;;5065140;28;21361;-49
2022/08/13 06:11:31;;;;;;;11.50;5.88;;;;;;;;;;5067767;28;20032;-45
2022/08/13 06:13:57;;;;;;;9.43;4.75;;;;;;;;;;5066007;28;20055;-48
2022/08/13 06:16:28;;;;;;;6.38;5.22;;;;;;;;;;5066031;28;20024;-49
2022/08/13 06:18:57;;;;;;;6.25;5.00;;;;;;;;;;5064411;28;20128;-46
2022/08/13 06:21:24;;;;;;;6.10;5.40;;;;;;;;;;5066704;28;20037;-46
2022/08/13 06:23:51;;;;;;;6.10;5.35;;;;;;;;;;5062426;28;20044;-49
2022/08/13 06:26:20;;;;;;;8.85;5.25;;;;;;;;;;5066535;28;20025;-47
2022/08/13 06:28:47;;;;;;;8.65;5.05;;;;;;;;;;5069198;28;20067;-49
2022/08/13 06:31:16;;;;;;;5.53;5.13;;;;;;;;;;5069108;28;20116;-47
2022/08/13 06:33:44;;;;;;;6.70;4.90;;;;;;;;;;5066580;28;20075;-47
2022/08/13 06:36:13;;;;;;;8.07;5.10;;;;;;;;;;5069288;28;20063;-49
2022/08/13 06:38:48;;;;;;;6.32;5.72;;;;;;;;;;5067010;28;20043;-49
2022/08/13 06:41:15;;;;;;;6.95;5.30;;;;;;;;;;5065613;28;20123;-47
2022/08/13 06:43:47;;;;;;;9.70;5.38;;;;;;;;;;5064250;28;20021;-45
2022/08/13 06:46:15;;;;;;;;;;;;;;;;;;5065059;28;20487;-48
2022/08/13 06:48:41;;;;;;;8.23;4.93;;;;;;;;;;5066081;28;19911;-45
2022/08/13 06:51:10;;;;;;;5.28;4.88;;;;;;;;;;5062778;28;20035;-46
2022/08/13 06:53:42;;;;;;;14.77;5.05;;;;;;;;;;5063948;28;20392;-48
2022/08/13 06:56:11;;;;;;;;;;;;;;;;;;5067442;28;20036;-47
2022/08/13 06:58:37;;;;;;;6.18;4.80;;;;;;;;;;5066398;28;19924;-48
2022/08/13 07:01:02;;;;;;;6.38;5.03;;;;;;;;;;5068680;28;20057;-45
2022/08/13 07:03:32;;;;;;;6.55;5.10;;;;;;;;;;5066502;28;20063;-51
2022/08/13 07:05:59;;;;;;;5.20;4.78;;;;;;;;;;5064263;28;20032;-45
2022/08/13 07:08:27;;;;;;;5.60;4.72;;;;;;;;;;5066039;28;20082;-50
2022/08/13 07:13:40;;;;;;;9.15;5.00;;;;;;;;;;5068721;28;20043;-47
2022/08/13 07:16:09;;;;;;;7.32;4.80;;;;;;;;;;5064408;28;20033;-46
2022/08/13 07:18:36;;;;;;;7.40;5.00;;;;;;;;;;5066250;28;20111;-49
2022/08/13 07:21:07;;;;;;;5.18;4.75;;;;;;;;;;5063991;28;20029;-46
2022/08/13 07:23:33;;;;;;;6.00;4.82;;;;;;;;;;5069631;28;20037;-47
2022/08/13 07:25:59;;;;;;;5.88;4.60;;;;;;;;;;5067295;28;20070;-47
2022/08/13 07:28:30;;;;;;;6.93;4.85;;;;;;;;;;5066451;28;20029;-49
2022/08/13 07:30:56;;;;;;;5.05;4.55;;;;;;;;;;5065292;28;20033;-45
2022/08/13 07:33:22;;;;;;;4.95;4.45;;;;;;;;;;5067375;28;20024;-45
2022/08/13 07:35:48;;;;;;;7.15;4.75;;;;;;;;;;5063164;28;20047;-47
2022/08/13 07:38:15;;;;;;;5.40;4.15;;;;;;;;;;5065720;28;20040;-46
2022/08/13 07:40:45;;;;;;;4.82;4.30;;;;;;;;;;5067377;28;20086;-46
2022/08/13 07:43:12;;;;;;;6.25;4.53;;;;;;;;;;5062779;28;20036;-48
2022/08/13 07:45:39;;;;;;;4.80;4.40;;;;;;;;;;5064488;28;20056;-46
2022/08/13 07:48:06;;;;;;;5.28;4.78;;;;;;;;;;5065276;28;20465;-46
2022/08/13 07:50:34;;;;;;;5.00;4.60;;;;;;;;;;5065157;28;20485;-45
2022/08/13 07:53:00;;;;;;;4.97;4.47;;;;;;;;;;5066533;28;20025;-46
2022/08/13 07:55:27;;;;;;;5.82;4.50;;;;;;;;;;5065831;28;20680;-45
2022/08/13 07:57:54;;;;;;;6.70;4.22;;;;;;;;;;5067791;28;20044;-45
2022/08/13 08:00:25;;;;;;;4.22;3.83;;;;;;;;;;5065044;28;20071;-47
2022/08/13 08:02:55;;;;;;;;;;;;;;;;;;5065818;28;20029;-48
2022/08/13 08:05:24;;;;;;;8.73;4.60;;;;;;;;;;5063690;28;19928;-46
2022/08/13 08:07:52;;;;;;;4.22;3.47;;;;;;;;;;5064030;28;20029;-47
2022/08/13 08:10:21;;;;;;;4.38;3.97;;;;;;;;;;5064882;28;20358;-47
2022/08/13 08:12:46;;;;;;;7.95;4.47;;;;;;;;;;5064100;28;20025;-46
2022/08/13 08:15:13;;;;;;;4.28;3.83;;;;;;;;;;5065243;28;20461;-47
2022/08/13 08:17:40;;;;;;;6.70;4.30;;;;;;;;;;5067616;28;20099;-46
2022/08/13 08:20:08;;;;;;;13.10;4.13;;;;;;;;;;5067124;28;20033;-45
2022/08/13 08:22:35;;;;;;;7.60;4.80;;;;;;;;;;5068656;28;20144;-46
2022/08/13 08:25:02;;;;;;;5.53;3.97;;;;;;;;;;5070011;28;20123;-46
2022/08/13 08:27:32;;;;;;;4.85;4.30;;;;;;;;;;5069009;28;20104;-46
2022/08/13 08:30:00;;;;;;;8.32;4.22;;;;;;;;;;5069436;28;20083;-45
2022/08/13 08:32:27;;;;;;;4.38;3.97;;;;;;;;;;5069896;28;20650;-46
2022/08/13 08:34:53;;;;;;;7.82;4.13;;;;;;;;;;5069302;28;20599;-46
2022/08/13 08:42:55;;;;;;;10.00;4.20;;;;;;;;;;5066902;28;20029;-46
2022/08/13 08:45:22;;;;;;;4.63;4.13;;;;;;;;;;5067219;28;20526;-46
2022/08/13 08:47:48;;;;;;;4.90;4.00;;;;;;;;;;5069990;28;20025;-51
2022/08/13 08:50:16;;;;;;;13.00;4.40;;;;;;;;;;5069113;28;20036;-49
2022/08/13 08:55:36;;;;;;;5.47;3.95;;;;;;;;;;5070525;28;20480;-49
2022/08/13 08:58:07;;;;;;;5.95;4.07;;;;;;;;;;5068845;28;20052;-46
2022/08/13 09:00:36;;;;;;;7.75;4.25;;;;;;;;;;5069212;28;20439;-47
2022/08/13 09:03:03;;;;;;;6.95;3.67;;;;;;;;;;5068921;28;20056;-47
2022/08/13 09:05:30;;;;;;;10.80;3.92;;;;;;;;;;5069907;28;20039;-47
2022/08/13 09:07:57;;;;;;;6.30;4.00;;;;;;;;;;5071707;28;20036;-46
2022/08/13 09:10:23;;;;;;;6.00;4.07;;;;;;;;;;5066180;28;20447;-46
2022/08/13 09:12:50;;;;;;;7.82;4.07;;;;;;;;;;5064615;28;20040;-47
2022/08/13 09:15:21;;;;;;;6.18;3.83;;;;;;;;;;5066216;28;20028;-48
2022/08/13 09:17:49;;;;;;;5.25;4.15;;;;;;;;;;5071847;28;20388;-47
2022/08/13 09:20:23;;;;;;;4.18;3.70;;;;;;;;;;5068825;28;20697;-46
2022/08/13 09:23:01;;;;;;;6.20;4.22;;;;;;;;;;5068008;28;20064;-45
2022/08/13 09:25:27;;;;;;;9.30;3.95;;;;;;;;;;5067654;28;20040;-46
2022/08/13 09:27:54;;;;;;;5.10;4.03;;;;;;;;;;5065795;28;20033;-46
2022/08/13 09:30:20;;;;;;;4.95;3.85;;;;;;;;;;5065956;28;20020;-46
2022/08/13 09:32:48;;;;;;;4.72;3.78;;;;;;;;;;5064993;28;20420;-45
2022/08/13 09:35:14;;;;;;;5.93;4.13;;;;;;;;;;5066594;28;20035;-47
2022/08/13 09:37:40;;;;;;;4.90;3.72;;;;;;;;;;5069619;28;20534;-47
2022/08/13 09:40:10;;;;;;;6.65;3.70;;;;;;;;;;5067307;28;20040;-47
2022/08/13 09:42:46;;;;;;;7.85;4.32;;;;;;;;;;5066935;28;20032;-50
2022/08/13 09:45:12;;;;;;;6.00;3.92;;;;;;;;;;5067892;28;20025;-53
2022/08/13 09:47:39;;;;;;;5.07;3.83;;;;;;;;;;5063975;28;20025;-49
2022/08/13 09:50:06;;;;;;;6.63;3.90;;;;;;;;;;5067062;28;20060;-47
2022/08/13 09:52:32;;;;;;;4.20;3.67;;;;;;;;;;5067714;28;20544;-46
2022/08/13 09:54:57;;;;;;;6.82;3.60;;;;;;;;;;5064990;28;20112;-46
2022/08/13 09:57:23;;;;;;;7.20;5.50;;;;;;;;;;5069203;28;20039;-48
2022/08/13 09:59:50;;;;;;;5.78;5.18;;;;;;;;;;5068364;28;20045;-46
2022/08/13 10:02:16;;;;;;;7.10;4.50;;;;;;;;;;5069669;28;20031;-46
2022/08/13 10:04:42;;;;;;;5.15;4.30;;;;;;;;;;5068695;28;20591;-51
2022/08/13 10:07:11;;;;;;;10.43;4.75;;;;;;;;;;5069904;28;20051;-46
2022/08/13 10:09:39;;;;;;;8.63;4.30;;;;;;;;;;5065829;28;20085;-47
2022/08/13 10:12:07;;;;;;;7.22;5.15;;;;;;;;;;5067726;28;20036;-50
2022/08/13 10:14:34;;;;;;;5.88;4.40;;;;;;;;;;5066204;28;20039;-46
2022/08/13 10:17:00;;;;;;;7.30;4.97;;;;;;;;;;5071712;28;20021;-47
2022/08/13 10:19:26;;;;;;;7.13;5.10;;;;;;;;;;5067565;28;20036;-49
2022/08/13 10:21:52;;;;;;;5.47;4.80;;;;;;;;;;5065310;28;20040;-47
2022/08/13 10:24:18;;;;;;;8.98;4.55;;;;;;;;;;5067023;28;20027;-48
2022/08/13 10:26:43;;;;;;;5.32;4.40;;;;;;;;;;5070104;28;20055;-47
2022/08/13 10:29:11;;;;;;;5.22;4.18;;;;;;;;;;5067437;28;20028;-47
2022/08/13 10:31:37;;;;;;;7.57;4.25;;;;;;;;;;5067493;28;20520;-47
2022/08/13 10:34:05;;;;;;;4.25;3.95;;;;;;;;;;5065623;28;20477;-47
2022/08/13 10:36:33;;;;;;;5.05;4.20;;;;;;;;;;5069710;28;20024;-49
2022/08/13 10:38:59;;;;;;;4.82;4.38;;;;;;;;;;5064224;28;20135;-46
2022/08/13 10:41:25;;;;;;;12.20;5.00;;;;;;;;;;5066056;28;20025;-49
2022/08/13 10:43:56;;;;;;;6.82;4.68;;;;;;;;;;5070437;28;20075;-47
2022/08/13 10:46:22;;;;;;;7.65;4.50;;;;;;;;;;5065375;28;20170;-47
2022/08/13 10:48:55;;;;;;;6.85;4.43;;;;;;;;;;5066428;28;20024;-47
2022/08/13 10:51:22;;;;;;;4.85;4.35;;;;;;;;;;5067570;28;20491;-45
2022/08/13 10:54:00;;;;;;;8.32;4.43;;;;;;;;;;5066951;28;20125;-48
2022/08/13 10:56:28;;;;;;;12.38;11.07;;;;;;;;;;5063725;28;20551;-47
2022/08/13 10:58:59;;;;;;;6.45;5.30;;;;;;;;;;5067789;28;20049;-48
2022/08/13 11:01:28;;;;;;;7.40;4.40;;;;;;;;;;5070449;28;20041;-48
2022/08/13 11:03:56;;;;;;;6.95;4.63;;;;;;;;;;5064722;28;20024;-49
2022/08/13 11:06:25;;;;;;;8.68;4.70;;;;;;;;;;5065684;28;20385;-47
2022/08/13 11:08:54;;;;;;;7.63;5.10;;;;;;;;;;5066805;28;20037;-51
2022/08/13 11:11:21;;;;;;;9.27;4.90;;;;;;;;;;5064936;28;20036;-48
2022/08/13 11:13:47;;;;;;;6.88;4.80;;;;;;;;;;5063567;28;20024;-49
2022/08/13 11:18:59;;;;;;;5.00;4.50;;;;;;;;;;5063664;28;20040;-48
2022/08/13 11:21:25;;;;;;;9.90;5.40;;;;;;;;;;5068726;28;20028;-49
2022/08/13 11:23:52;;;;;;;7.20;4.80;;;;;;;;;;5063763;28;20044;-46
2022/08/13 11:26:20;;;;;;;5.45;4.32;;;;;;;;;;5065961;28;20060;-48
2022/08/13 11:28:45;;;;;;;6.40;4.50;;;;;;;;;;5064751;28;20033;-47
2022/08/13 11:31:11;;;;;;;5.65;4.93;;;;;;;;;;5061514;28;20090;-48
2022/08/13 11:33:37;;;;;;;7.40;4.63;;;;;;;;;;5063404;28;20597;-45
2022/08/13 11:36:03;;;;;;;6.57;5.38;;;;;;;;;;5065783;28;20037;-47
2022/08/13 11:38:29;;;;;;;12.73;5.32;;;;;;;;;;5067310;28;20474;-46
2022/08/13 11:40:57;;;;;;;10.18;4.68;;;;;;;;;;5065552;28;20040;-50
2022/08/13 11:43:28;;;;;;;7.18;4.30;;;;;;;;;;5063897;28;20037;-47
2022/08/13 11:45:54;;;;;;;;;;;;;;;;;;5063046;28;20476;-46
2022/08/13 11:48:20;;;;;;;5.88;4.68;;;;;;;;;;5066462;28;19923;-47
2022/08/13 11:50:47;;;;;;;8.95;4.35;;;;;;;;;;5064505;28;20413;-47
2022/08/13 11:53:13;;;;;;;5.85;3.92;;;;;;;;;;5068956;28;20036;-46
2022/08/13 11:55:39;;;;;;;9.07;4.10;;;;;;;;;;5069845;28;20024;-48
2022/08/13 11:58:06;;;;;;;10.98;4.55;;;;;;;;;;5069852;28;20132;-49
2022/08/13 12:00:34;;;;;;;13.38;4.70;;;;;;;;;;5069913;28;20036;-47
2022/08/13 12:02:59;;;;;;;7.43;4.40;;;;;;;;;;5072486;28;20024;-51
2022/08/13 12:05:25;;;;;;;6.45;3.85;;;;;;;;;;5068705;28;20089;-45
2022/08/13 12:07:51;;;;;;;14.20;4.22;;;;;;;;;;5071801;28;20032;-46
2022/08/13 12:10:17;;;;;;;8.27;3.90;;;;;;;;;;5071546;28;20025;-48
2022/08/13 12:12:44;;;;;;;10.07;4.55;;;;;;;;;;5084617;28;20029;-49
2022/08/13 12:15:10;;;;;;;12.40;3.88;;;;;;;;;;5068800;28;20032;-50
2022/08/13 12:17:40;;;;;;;9.68;3.80;;;;;;;;;;5065914;28;20028;-49
2022/08/13 12:20:08;;;;;;;7.03;3.60;;;;;;;;;;5069072;28;20437;-46
2022/08/13 12:22:33;;;;;;;11.38;4.18;;;;;;;;;;5065256;28;20581;-46
2022/08/13 12:24:59;;;;;;;8.27;3.80;;;;;;;;;;5072445;28;20033;-50
2022/08/13 12:27:25;;;;;;;9.85;4.05;;;;;;;;;;5068568;28;20035;-46
2022/08/13 12:29:50;;;;;;;10.25;4.30;;;;;;;;;;5071257;28;20051;-47
2022/08/13 12:32:16;;;;;;;5.65;3.97;;;;;;;;;;5067187;28;20021;-50
2022/08/13 12:34:42;;;;;;;9.50;3.70;;;;;;;;;;5070583;28;20029;-49
2022/08/13 12:37:08;;;;;;;8.75;4.20;;;;;;;;;;5066979;28;20028;-46
2022/08/13 12:39:34;;;;;;;7.88;4.18;;;;;;;;;;5067573;28;20033;-50
2022/08/13 12:41:59;;;;;;;11.70;4.40;;;;;;;;;;5070752;28;20032;-48
2022/08/13 12:44:25;;;;;;;7.03;4.20;;;;;;;;;;5068659;28;20036;-46
2022/08/13 12:46:51;;;;;;;14.05;4.50;;;;;;;;;;5069295;28;20024;-44
2022/08/13 12:49:17;;;;;;;8.77;3.92;;;;;;;;;;5068919;28;20095;-46
2022/08/13 12:51:42;;;;;;;7.15;3.90;;;;;;;;;;5067079;28;20031;-46
2022/08/13 12:54:08;;;;;;;11.88;4.35;;;;;;;;;;5069246;28;20050;-51
2022/08/13 12:56:34;;;;;;;13.82;3.97;;;;;;;;;;5067693;28;20055;-46
2022/08/13 12:58:59;;;;;;;8.35;4.03;;;;;;;;;;5067436;28;20504;-48
2022/08/13 13:01:25;;;;;;;12.00;3.83;;;;;;;;;;5066921;28;20676;-47
2022/08/13 13:03:51;;;;;;;11.95;3.90;;;;;;;;;;5067848;28;20032;-46
2022/08/13 13:06:17;;;;;;;6.13;3.95;;;;;;;;;;5070721;28;20021;-50
2022/08/13 13:08:43;;;;;;;9.40;3.70;;;;;;;;;;5071027;28;20047;-48
2022/08/13 13:11:10;;;;;;;9.00;3.50;;;;;;;;;;5068462;28;20052;-46
2022/08/13 13:13:36;;;;;;;11.32;3.83;;;;;;;;;;5069230;28;20354;-48
2022/08/13 13:16:04;;;;;;;7.82;3.70;;;;;;;;;;5071287;28;20047;-46
2022/08/13 13:18:30;;;;;;;7.65;3.53;;;;;;;;;;5069901;28;20548;-46
2022/08/13 13:20:57;;;;;;;8.70;3.45;;;;;;;;;;5065979;28;20036;-46
2022/08/13 13:23:26;;;;;;;9.73;4.22;;;;;;;;;;5070605;28;20037;-47
2022/08/13 13:25:52;;;;;;;8.95;4.55;;;;;;;;;;5067443;28;20397;-46
2022/08/13 13:28:21;;;;;;;10.85;4.30;;;;;;;;;;5068423;28;20059;-46
2022/08/13 13:30:49;;;;;;;15.02;6.28;;;;;;;;;;5066956;28;20021;-46
2022/08/13 13:33:15;;;;;;;6.78;3.33;;;;;;;;;;5069821;28;20143;-46
2022/08/13 13:35:42;;;;;;;9.90;3.60;;;;;;;;;;5064840;28;20542;-46
2022/08/13 13:38:10;;;;;;;13.45;3.50;;;;;;;;;;5067426;28;20032;-48
2022/08/13 13:40:41;;;;;;;7.38;3.60;;;;;;;;;;5069235;28;20493;-47
2022/08/13 13:43:07;;;;;;;11.40;3.00;;;;;;;;;;5067369;28;20029;-47
2022/08/13 13:45:35;;;;;;;8.55;3.80;;;;;;;;;;5069613;28;20037;-47
2022/08/13 13:48:00;;;;;;;11.55;3.33;;;;;;;;;;5067388;28;20037;-46
2022/08/13 13:50:28;;;;;;;8.65;3.38;;;;;;;;;;5066148;28;20574;-46
2022/08/13 13:52:55;;;;;;;13.93;3.42;;;;;;;;;;5068574;28;20594;-47
2022/08/13 13:55:22;;;;;;;13.27;3.60;;;;;;;;;;5067044;28;20048;-47
2022/08/13 13:57:49;;;;;;;8.88;3.45;;;;;;;;;;5068173;28;20914;-46
2022/08/13 14:00:15;;;;;;;9.45;3.33;;;;;;;;;;5067721;28;20032;-45
2022/08/13 14:02:52;;;;;;;7.75;3.22;;;;;;;;;;5066618;28;20028;-50
2022/08/13 14:05:19;;;;;;;6.07;3.15;;;;;;;;;;5068092;28;20044;-48
2022/08/13 14:07:59;;;;;;;6.10;3.15;;;;;;;;;;5068131;28;20035;-47
2022/08/13 14:10:26;;;;;;;10.80;3.42;;;;;;;;;;5067506;28;20044;-46
2022/08/13 14:12:54;;;;;;;9.65;3.33;;;;;;;;;;5066890;28;20028;-46
2022/08/13 14:15:20;;;;;;;8.00;3.58;;;;;;;;;;5066208;28;20039;-45
2022/08/13 14:17:49;;;;;;;9.55;3.30;;;;;;;;;;5070497;28;20074;-48
2022/08/13 14:20:15;;;;;;;9.82;3.25;;;;;;;;;;5067876;28;20025;-48
2022/08/13 14:22:42;;;;;;;9.50;3.60;;;;;;;;;;5064397;28;20046;-50
2022/08/13 14:25:11;;;;;;;8.25;3.25;;;;;;;;;;5065756;28;20028;-47
2022/08/13 14:27:38;;;;;;;9.57;3.10;;;;;;;;;;5066073;28;20024;-45
2022/08/13 14:30:07;;;;;;;5.18;2.97;;;;;;;;;;5065969;28;20051;-51
2022/08/13 14:32:35;;;;;;;12.05;3.40;;;;;;;;;;5065244;28;20120;-48
2022/08/13 14:35:14;;;;;;;9.32;3.22;;;;;;;;;;5066828;28;20031;-49
2022/08/13 14:37:42;;;;;;;7.10;3.00;;;;;;;;;;5066632;28;20036;-46
2022/08/13 14:40:11;;;;;;;11.75;3.33;;;;;;;;;;5068011;28;20051;-47
2022/08/13 14:42:45;;;;;;;10.50;3.50;;;;;;;;;;5065579;28;20533;-45
2022/08/13 14:47:59;;;;;;;5.72;2.80;;;;;;;;;;5063328;28;20108;-46
2022/08/13 14:50:27;;;;;;;6.30;3.38;;;;;;;;;;5067710;28;20115;-46
2022/08/13 14:52:53;;;;;;;8.65;3.67;;;;;;;;;;5065894;28;20144;-46
2022/08/13 14:55:21;;;;;;;7.30;3.15;;;;;;;;;;5068360;28;20140;-45
2022/08/13 14:57:48;;;;;;;9.50;2.88;;;;;;;;;;5067933;28;20082;-47
2022/08/13 15:00:15;;;;;;;10.25;3.75;;;;;;;;;;5066629;28;20082;-47
2022/08/13 15:02:41;;;;;;;9.48;3.22;;;;;;;;;;5068878;28;20077;-47
2022/08/13 15:05:09;;;;;;;5.28;2.85;;;;;;;;;;5063601;28;20063;-48
2022/08/13 15:07:36;;;;;;;5.93;2.95;;;;;;;;;;5066050;28;20146;-49
2022/08/13 15:10:03;;;;;;;9.43;3.13;;;;;;;;;;5067674;28;20124;-46
2022/08/13 15:12:30;;;;;;;7.18;2.88;;;;;;;;;;5067093;28;20032;-46
2022/08/13 15:15:00;;;;;;;10.73;3.42;;;;;;;;;;5068149;28;20040;-48